sensor_id;sensor_type;location;lat;lon;timestamp;temperature;humidity
67870;DHT22;54673;52.262;6.830;2024-02-04T00:00:04;9.20;99.90
67870;DHT22;54673;52.262;6.830;2024-02-04T00:02:31;9.20;99.90
67870;DHT22;54673;52.262;6.830;2024-02-04T00:04:56;9.20;99.90
67870;DHT22;54673;52.262;6.830;2024-02-04T00:07:22;9.20;99.90
67870;DHT22;54673;52.262;6.830;2024-02-04T00:09:47;9.20;99.90
67870;DHT22;54673;52.262;6.830;2024-02-04T00:12:13;9.20;99.90
67870;DHT22;54673;52.262;6.830;2024-02-04T00:14:38;9.20;99.90
67870;DHT22;54673;52.262;6.830;2024-02-04T00:17:04;9.20;99.90
67870;DHT22;54673;52.262;6.830;2024-02-04T00:19:29;9.20;99.90
67870;DHT22;54673;52.262;6.830;2024-02-04T00:21:55;9.20;99.90
67870;DHT22;54673;52.262;6.830;2024-02-04T00:24:21;9.20;99.90
67870;DHT22;54673;52.262;6.830;2024-02-04T00:26:46;9.20;99.90
67870;DHT22;54673;52.262;6.830;2024-02-04T00:29:12;9.30;99.90
67870;DHT22;54673;52.262;6.830;2024-02-04T00:31:38;9.20;99.90
67870;DHT22;54673;52.262;6.830;2024-02-04T00:34:03;10.10;99.90
67870;DHT22;54673;52.262;6.830;2024-02-04T00:36:30;9.20;99.90
67870;DHT22;54673;52.262;6.830;2024-02-04T00:38:55;9.30;99.90
67870;DHT22;54673;52.262;6.830;2024-02-04T00:41:21;9.20;99.90
67870;DHT22;54673;52.262;6.830;2024-02-04T00:43:47;9.70;99.90
67870;DHT22;54673;52.262;6.830;2024-02-04T00:46:12;9.20;99.90
67870;DHT22;54673;52.262;6.830;2024-02-04T00:48:38;9.20;99.90
67870;DHT22;54673;52.262;6.830;2024-02-04T00:51:06;9.20;99.90
67870;DHT22;54673;52.262;6.830;2024-02-04T00:53:32;9.30;99.90
67870;DHT22;54673;52.262;6.830;2024-02-04T00:56:01;9.20;99.90
67870;DHT22;54673;52.262;6.830;2024-02-04T00:58:27;9.20;99.90
67870;DHT22;54673;52.262;6.830;2024-02-04T01:00:53;10.60;99.90
67870;DHT22;54673;52.262;6.830;2024-02-04T01:03:18;10.20;99.90
67870;DHT22;54673;52.262;6.830;2024-02-04T01:05:44;9.20;99.90
67870;DHT22;54673;52.262;6.830;2024-02-04T01:08:09;9.20;99.90
67870;DHT22;54673;52.262;6.830;2024-02-04T01:10:35;9.20;99.90
67870;DHT22;54673;52.262;6.830;2024-02-04T01:13:00;9.90;99.90
67870;DHT22;54673;52.262;6.830;2024-02-04T01:15:26;9.80;99.90
67870;DHT22;54673;52.262;6.830;2024-02-04T01:17:52;9.30;99.90
67870;DHT22;54673;52.262;6.830;2024-02-04T01:20:18;9.30;99.90
67870;DHT22;54673;52.262;6.830;2024-02-04T01:22:43;9.30;99.90
67870;DHT22;54673;52.262;6.830;2024-02-04T01:25:09;9.30;99.90
67870;DHT22;54673;52.262;6.830;2024-02-04T01:27:34;9.30;99.90
67870;DHT22;54673;52.262;6.830;2024-02-04T01:30:00;9.20;99.90
67870;DHT22;54673;52.262;6.830;2024-02-04T01:32:26;10.20;99.90
67870;DHT22;54673;52.262;6.830;2024-02-04T01:34:51;9.30;99.90
67870;DHT22;54673;52.262;6.830;2024-02-04T01:37:17;9.30;99.90
67870;DHT22;54673;52.262;6.830;2024-02-04T01:39:43;9.50;99.90
67870;DHT22;54673;52.262;6.830;2024-02-04T01:42:09;9.80;99.90
67870;DHT22;54673;52.262;6.830;2024-02-04T01:44:35;9.30;99.90
67870;DHT22;54673;52.262;6.830;2024-02-04T01:47:01;9.20;99.90
67870;DHT22;54673;52.262;6.830;2024-02-04T01:49:27;9.30;99.90
67870;DHT22;54673;52.262;6.830;2024-02-04T01:51:53;9.30;99.90
67870;DHT22;54673;52.262;6.830;2024-02-04T01:54:19;10.10;99.90
67870;DHT22;54673;52.262;6.830;2024-02-04T01:56:49;9.30;99.90
67870;DHT22;54673;52.262;6.830;2024-02-04T01:59:16;9.30;99.90
67870;DHT22;54673;52.262;6.830;2024-02-04T02:01:43;9.30;99.90
67870;DHT22;54673;52.262;6.830;2024-02-04T02:04:08;9.70;99.90
67870;DHT22;54673;52.262;6.830;2024-02-04T02:06:34;9.30;99.90
67870;DHT22;54673;52.262;6.830;2024-02-04T02:09:07;9.20;99.90
67870;DHT22;54673;52.262;6.830;2024-02-04T02:14:25;9.30;99.90
67870;DHT22;54673;52.262;6.830;2024-02-04T02:16:54;9.20;99.90
67870;DHT22;54673;52.262;6.830;2024-02-04T02:19:56;9.30;99.90
67870;DHT22;54673;52.262;6.830;2024-02-04T02:22:29;9.20;99.90
67870;DHT22;54673;52.262;6.830;2024-02-04T02:24:58;9.20;99.90
67870;DHT22;54673;52.262;6.830;2024-02-04T02:27:25;9.20;99.90
67870;DHT22;54673;52.262;6.830;2024-02-04T02:29:51;9.30;99.90
67870;DHT22;54673;52.262;6.830;2024-02-04T02:32:17;9.20;99.90
67870;DHT22;54673;52.262;6.830;2024-02-04T02:34:43;9.20;99.90
67870;DHT22;54673;52.262;6.830;2024-02-04T02:37:29;9.20;99.90
67870;DHT22;54673;52.262;6.830;2024-02-04T02:42:32;9.20;99.90
67870;DHT22;54673;52.262;6.830;2024-02-04T02:44:59;9.70;99.90
67870;DHT22;54673;52.262;6.830;2024-02-04T02:47:26;9.20;99.90
67870;DHT22;54673;52.262;6.830;2024-02-04T02:49:54;9.20;99.90
67870;DHT22;54673;52.262;6.830;2024-02-04T02:52:20;9.20;99.90
67870;DHT22;54673;52.262;6.830;2024-02-04T02:54:46;9.20;99.90
67870;DHT22;54673;52.262;6.830;2024-02-04T02:57:11;9.20;99.90
67870;DHT22;54673;52.262;6.830;2024-02-04T02:59:38;9.20;99.90
67870;DHT22;54673;52.262;6.830;2024-02-04T03:02:04;9.10;99.90
67870;DHT22;54673;52.262;6.830;2024-02-04T03:04:30;9.10;99.90
67870;DHT22;54673;52.262;6.830;2024-02-04T03:06:55;9.10;99.90
67870;DHT22;54673;52.262;6.830;2024-02-04T03:09:21;9.10;99.90
67870;DHT22;54673;52.262;6.830;2024-02-04T03:11:46;9.10;99.90
67870;DHT22;54673;52.262;6.830;2024-02-04T03:14:15;9.10;99.90
67870;DHT22;54673;52.262;6.830;2024-02-04T03:16:43;9.10;99.90
67870;DHT22;54673;52.262;6.830;2024-02-04T03:19:10;9.10;99.90
67870;DHT22;54673;52.262;6.830;2024-02-04T03:21:35;9.10;99.90
67870;DHT22;54673;52.262;6.830;2024-02-04T03:24:01;9.10;99.90
67870;DHT22;54673;52.262;6.830;2024-02-04T03:26:26;9.00;99.90
67870;DHT22;54673;52.262;6.830;2024-02-04T03:28:52;9.00;99.90
67870;DHT22;54673;52.262;6.830;2024-02-04T03:31:21;9.00;99.90
67870;DHT22;54673;52.262;6.830;2024-02-04T03:33:47;9.10;99.90
67870;DHT22;54673;52.262;6.830;2024-02-04T03:36:15;10.00;99.90
67870;DHT22;54673;52.262;6.830;2024-02-04T03:38:40;9.00;99.90
67870;DHT22;54673;52.262;6.830;2024-02-04T03:41:06;9.00;99.90
67870;DHT22;54673;52.262;6.830;2024-02-04T03:43:31;9.10;99.90
67870;DHT22;54673;52.262;6.830;2024-02-04T03:45:57;9.00;99.90
67870;DHT22;54673;52.262;6.830;2024-02-04T03:48:23;9.00;99.90
67870;DHT22;54673;52.262;6.830;2024-02-04T03:50:48;8.90;99.90
67870;DHT22;54673;52.262;6.830;2024-02-04T03:53:14;8.90;99.90
67870;DHT22;54673;52.262;6.830;2024-02-04T03:55:39;8.90;99.90
67870;DHT22;54673;52.262;6.830;2024-02-04T03:58:05;8.90;99.90
67870;DHT22;54673;52.262;6.830;2024-02-04T04:00:31;8.90;99.90
67870;DHT22;54673;52.262;6.830;2024-02-04T04:02:56;8.90;99.90
67870;DHT22;54673;52.262;6.830;2024-02-04T04:05:22;8.90;99.90
67870;DHT22;54673;52.262;6.830;2024-02-04T04:07:47;8.90;99.90
67870;DHT22;54673;52.262;6.830;2024-02-04T04:10:13;9.70;99.90
67870;DHT22;54673;52.262;6.830;2024-02-04T04:12:39;8.90;99.90
67870;DHT22;54673;52.262;6.830;2024-02-04T04:15:05;9.70;99.90
67870;DHT22;54673;52.262;6.830;2024-02-04T04:17:30;8.90;99.90
67870;DHT22;54673;52.262;6.830;2024-02-04T04:19:56;8.90;99.90
67870;DHT22;54673;52.262;6.830;2024-02-04T04:22:22;8.80;99.90
67870;DHT22;54673;52.262;6.830;2024-02-04T04:24:47;10.10;99.90
67870;DHT22;54673;52.262;6.830;2024-02-04T04:27:13;8.80;99.90
67870;DHT22;54673;52.262;6.830;2024-02-04T04:29:38;8.80;99.90
67870;DHT22;54673;52.262;6.830;2024-02-04T04:32:05;8.80;99.90
67870;DHT22;54673;52.262;6.830;2024-02-04T04:34:30;8.80;99.90
67870;DHT22;54673;52.262;6.830;2024-02-04T04:36:56;8.90;99.90
67870;DHT22;54673;52.262;6.830;2024-02-04T04:39:21;8.80;99.90
67870;DHT22;54673;52.262;6.830;2024-02-04T04:41:47;8.80;99.90
67870;DHT22;54673;52.262;6.830;2024-02-04T04:44:12;8.80;99.90
67870;DHT22;54673;52.262;6.830;2024-02-04T04:46:38;8.80;99.90
67870;DHT22;54673;52.262;6.830;2024-02-04T04:49:05;9.90;99.90
67870;DHT22;54673;52.262;6.830;2024-02-04T04:51:30;8.80;99.90
67870;DHT22;54673;52.262;6.830;2024-02-04T04:53:56;9.20;99.90
67870;DHT22;54673;52.262;6.830;2024-02-04T04:56:21;8.70;99.90
67870;DHT22;54673;52.262;6.830;2024-02-04T04:58:47;8.80;99.90
67870;DHT22;54673;52.262;6.830;2024-02-04T05:01:13;8.80;99.90
67870;DHT22;54673;52.262;6.830;2024-02-04T05:03:40;8.60;99.90
67870;DHT22;54673;52.262;6.830;2024-02-04T05:06:05;8.60;99.90
67870;DHT22;54673;52.262;6.830;2024-02-04T05:08:31;8.70;99.90
67870;DHT22;54673;52.262;6.830;2024-02-04T05:10:56;8.90;99.90
67870;DHT22;54673;52.262;6.830;2024-02-04T05:13:22;8.60;99.90
67870;DHT22;54673;52.262;6.830;2024-02-04T05:15:47;8.60;99.90
67870;DHT22;54673;52.262;6.830;2024-02-04T05:18:13;9.30;99.90
67870;DHT22;54673;52.262;6.830;2024-02-04T05:20:39;8.60;99.90
67870;DHT22;54673;52.262;6.830;2024-02-04T05:23:04;8.60;99.90
67870;DHT22;54673;52.262;6.830;2024-02-04T05:25:30;9.50;99.90
67870;DHT22;54673;52.262;6.830;2024-02-04T05:27:56;8.50;99.90
67870;DHT22;54673;52.262;6.830;2024-02-04T05:30:22;8.60;99.90
67870;DHT22;54673;52.262;6.830;2024-02-04T05:32:48;8.60;99.90
67870;DHT22;54673;52.262;6.830;2024-02-04T05:35:13;8.50;99.90
67870;DHT22;54673;52.262;6.830;2024-02-04T05:37:39;8.60;99.90
67870;DHT22;54673;52.262;6.830;2024-02-04T05:40:05;8.50;99.90
67870;DHT22;54673;52.262;6.830;2024-02-04T05:42:30;8.50;99.90
67870;DHT22;54673;52.262;6.830;2024-02-04T05:44:57;8.80;99.90
67870;DHT22;54673;52.262;6.830;2024-02-04T05:47:23;8.50;99.90
67870;DHT22;54673;52.262;6.830;2024-02-04T05:49:49;8.50;99.90
67870;DHT22;54673;52.262;6.830;2024-02-04T05:52:14;8.50;99.90
67870;DHT22;54673;52.262;6.830;2024-02-04T05:54:40;8.50;99.90
67870;DHT22;54673;52.262;6.830;2024-02-04T05:57:06;8.50;99.90
67870;DHT22;54673;52.262;6.830;2024-02-04T05:59:33;9.30;99.90
67870;DHT22;54673;52.262;6.830;2024-02-04T06:01:58;8.50;99.90
67870;DHT22;54673;52.262;6.830;2024-02-04T06:04:24;8.50;99.90
67870;DHT22;54673;52.262;6.830;2024-02-04T06:06:49;8.40;99.90
67870;DHT22;54673;52.262;6.830;2024-02-04T06:09:15;8.50;99.90
67870;DHT22;54673;52.262;6.830;2024-02-04T06:11:40;9.30;99.90
67870;DHT22;54673;52.262;6.830;2024-02-04T06:14:09;8.40;99.90
67870;DHT22;54673;52.262;6.830;2024-02-04T06:16:35;8.40;99.90
67870;DHT22;54673;52.262;6.830;2024-02-04T06:19:00;8.40;99.90
67870;DHT22;54673;52.262;6.830;2024-02-04T06:21:26;8.40;99.90
67870;DHT22;54673;52.262;6.830;2024-02-04T06:23:51;8.40;99.90
67870;DHT22;54673;52.262;6.830;2024-02-04T06:26:17;8.50;99.90
67870;DHT22;54673;52.262;6.830;2024-02-04T06:28:43;8.40;99.90
67870;DHT22;54673;52.262;6.830;2024-02-04T06:31:11;8.40;99.90
67870;DHT22;54673;52.262;6.830;2024-02-04T06:33:37;8.40;99.90
67870;DHT22;54673;52.262;6.830;2024-02-04T06:36:03;8.70;99.90
67870;DHT22;54673;52.262;6.830;2024-02-04T06:38:28;8.40;99.90
67870;DHT22;54673;52.262;6.830;2024-02-04T06:40:54;8.40;99.90
67870;DHT22;54673;52.262;6.830;2024-02-04T06:43:19;8.40;99.90
67870;DHT22;54673;52.262;6.830;2024-02-04T06:45:45;8.40;99.90
67870;DHT22;54673;52.262;6.830;2024-02-04T06:48:12;9.10;99.90
67870;DHT22;54673;52.262;6.830;2024-02-04T06:50:37;8.30;99.90
67870;DHT22;54673;52.262;6.830;2024-02-04T06:53:03;8.30;99.90
67870;DHT22;54673;52.262;6.830;2024-02-04T06:55:29;8.30;99.90
67870;DHT22;54673;52.262;6.830;2024-02-04T06:57:54;9.70;99.90
67870;DHT22;54673;52.262;6.830;2024-02-04T07:00:20;8.30;99.90
67870;DHT22;54673;52.262;6.830;2024-02-04T07:02:46;8.30;99.90
67870;DHT22;54673;52.262;6.830;2024-02-04T07:05:12;8.30;99.90
67870;DHT22;54673;52.262;6.830;2024-02-04T07:07:37;8.30;99.90
67870;DHT22;54673;52.262;6.830;2024-02-04T07:10:03;8.30;99.90
67870;DHT22;54673;52.262;6.830;2024-02-04T07:12:29;8.30;99.90
67870;DHT22;54673;52.262;6.830;2024-02-04T07:14:55;8.30;99.90
67870;DHT22;54673;52.262;6.830;2024-02-04T07:17:20;8.20;99.90
67870;DHT22;54673;52.262;6.830;2024-02-04T07:19:46;8.20;99.90
67870;DHT22;54673;52.262;6.830;2024-02-04T07:22:11;8.30;99.90
67870;DHT22;54673;52.262;6.830;2024-02-04T07:24:37;8.20;99.90
67870;DHT22;54673;52.262;6.830;2024-02-04T07:27:03;8.20;99.90
67870;DHT22;54673;52.262;6.830;2024-02-04T07:29:29;8.20;99.90
67870;DHT22;54673;52.262;6.830;2024-02-04T07:31:54;8.20;99.90
67870;DHT22;54673;52.262;6.830;2024-02-04T07:34:20;8.20;99.90
67870;DHT22;54673;52.262;6.830;2024-02-04T07:36:46;8.20;99.90
67870;DHT22;54673;52.262;6.830;2024-02-04T07:39:11;8.20;99.90
67870;DHT22;54673;52.262;6.830;2024-02-04T07:41:37;9.00;99.90
67870;DHT22;54673;52.262;6.830;2024-02-04T07:44:03;8.20;99.90
67870;DHT22;54673;52.262;6.830;2024-02-04T07:46:28;8.20;99.90
67870;DHT22;54673;52.262;6.830;2024-02-04T07:48:54;8.20;99.90
67870;DHT22;54673;52.262;6.830;2024-02-04T07:51:20;8.60;99.90
67870;DHT22;54673;52.262;6.830;2024-02-04T07:53:45;8.20;99.90
67870;DHT22;54673;52.262;6.830;2024-02-04T07:56:11;8.20;99.90
67870;DHT22;54673;52.262;6.830;2024-02-04T07:58:37;8.20;99.90
67870;DHT22;54673;52.262;6.830;2024-02-04T08:01:02;8.60;99.90
67870;DHT22;54673;52.262;6.830;2024-02-04T08:03:28;8.50;99.90
67870;DHT22;54673;52.262;6.830;2024-02-04T08:05:54;8.10;99.90
67870;DHT22;54673;52.262;6.830;2024-02-04T08:08:19;8.50;99.90
67870;DHT22;54673;52.262;6.830;2024-02-04T08:10:45;8.10;99.90
67870;DHT22;54673;52.262;6.830;2024-02-04T08:13:10;8.10;99.90
67870;DHT22;54673;52.262;6.830;2024-02-04T08:15:36;8.10;99.90
67870;DHT22;54673;52.262;6.830;2024-02-04T08:18:02;8.10;99.90
67870;DHT22;54673;52.262;6.830;2024-02-04T08:20:28;8.90;99.90
67870;DHT22;54673;52.262;6.830;2024-02-04T08:22:54;8.10;99.90
67870;DHT22;54673;52.262;6.830;2024-02-04T08:25:20;8.10;99.90
67870;DHT22;54673;52.262;6.830;2024-02-04T08:27:46;8.10;99.90
67870;DHT22;54673;52.262;6.830;2024-02-04T08:30:11;8.60;99.90
67870;DHT22;54673;52.262;6.830;2024-02-04T08:32:38;8.10;99.90
67870;DHT22;54673;52.262;6.830;2024-02-04T08:35:04;8.10;99.90
67870;DHT22;54673;52.262;6.830;2024-02-04T08:37:31;8.10;99.90
67870;DHT22;54673;52.262;6.830;2024-02-04T08:39:57;8.10;99.90
67870;DHT22;54673;52.262;6.830;2024-02-04T08:42:23;8.10;99.90
67870;DHT22;54673;52.262;6.830;2024-02-04T08:44:48;8.70;99.90
67870;DHT22;54673;52.262;6.830;2024-02-04T08:47:14;8.20;99.90
67870;DHT22;54673;52.262;6.830;2024-02-04T08:49:42;8.20;99.90
67870;DHT22;54673;52.262;6.830;2024-02-04T08:52:07;8.10;99.90
67870;DHT22;54673;52.262;6.830;2024-02-04T08:54:33;8.20;99.90
67870;DHT22;54673;52.262;6.830;2024-02-04T08:56:58;8.20;99.90
67870;DHT22;54673;52.262;6.830;2024-02-04T08:59:24;8.10;99.90
67870;DHT22;54673;52.262;6.830;2024-02-04T09:01:50;8.20;99.90
67870;DHT22;54673;52.262;6.830;2024-02-04T09:04:15;8.20;99.90
67870;DHT22;54673;52.262;6.830;2024-02-04T09:06:41;8.20;99.90
67870;DHT22;54673;52.262;6.830;2024-02-04T09:09:07;8.20;99.90
67870;DHT22;54673;52.262;6.830;2024-02-04T09:11:34;9.00;99.90
67870;DHT22;54673;52.262;6.830;2024-02-04T09:14:00;8.20;99.90
67870;DHT22;54673;52.262;6.830;2024-02-04T09:16:25;8.20;99.90
67870;DHT22;54673;52.262;6.830;2024-02-04T09:18:51;8.20;99.90
67870;DHT22;54673;52.262;6.830;2024-02-04T09:21:16;8.20;99.90
67870;DHT22;54673;52.262;6.830;2024-02-04T09:23:42;8.20;99.90
67870;DHT22;54673;52.262;6.830;2024-02-04T09:26:08;8.20;99.90
67870;DHT22;54673;52.262;6.830;2024-02-04T09:28:36;8.20;99.90
67870;DHT22;54673;52.262;6.830;2024-02-04T09:31:03;8.20;99.90
67870;DHT22;54673;52.262;6.830;2024-02-04T09:33:29;8.20;99.90
67870;DHT22;54673;52.262;6.830;2024-02-04T09:35:54;8.70;99.90
67870;DHT22;54673;52.262;6.830;2024-02-04T09:38:20;8.20;99.90
67870;DHT22;54673;52.262;6.830;2024-02-04T09:40:46;8.20;99.90
67870;DHT22;54673;52.262;6.830;2024-02-04T09:43:11;8.30;99.90
67870;DHT22;54673;52.262;6.830;2024-02-04T09:45:38;9.50;99.90
67870;DHT22;54673;52.262;6.830;2024-02-04T09:48:06;8.30;99.90
67870;DHT22;54673;52.262;6.830;2024-02-04T09:50:33;8.30;99.90
67870;DHT22;54673;52.262;6.830;2024-02-04T09:52:59;8.70;99.90
67870;DHT22;54673;52.262;6.830;2024-02-04T09:55:27;8.30;99.90
67870;DHT22;54673;52.262;6.830;2024-02-04T09:57:54;8.30;99.90
67870;DHT22;54673;52.262;6.830;2024-02-04T10:00:20;9.10;99.90
67870;DHT22;54673;52.262;6.830;2024-02-04T10:02:48;8.30;99.90
67870;DHT22;54673;52.262;6.830;2024-02-04T10:05:15;8.30;99.90
67870;DHT22;54673;52.262;6.830;2024-02-04T10:07:41;8.40;99.90
67870;DHT22;54673;52.262;6.830;2024-02-04T10:10:07;8.30;99.90
67870;DHT22;54673;52.262;6.830;2024-02-04T10:12:33;8.30;99.90
67870;DHT22;54673;52.262;6.830;2024-02-04T10:15:01;8.40;99.90
67870;DHT22;54673;52.262;6.830;2024-02-04T10:17:27;8.90;99.90
67870;DHT22;54673;52.262;6.830;2024-02-04T10:19:53;8.30;99.90
67870;DHT22;54673;52.262;6.830;2024-02-04T10:22:18;9.80;99.90
67870;DHT22;54673;52.262;6.830;2024-02-04T10:24:44;8.30;99.90
67870;DHT22;54673;52.262;6.830;2024-02-04T10:27:12;8.40;99.90
67870;DHT22;54673;52.262;6.830;2024-02-04T10:29:37;8.40;99.90
67870;DHT22;54673;52.262;6.830;2024-02-04T10:32:03;8.40;99.90
67870;DHT22;54673;52.262;6.830;2024-02-04T10:34:29;8.50;99.90
67870;DHT22;54673;52.262;6.830;2024-02-04T10:36:56;8.60;99.90
67870;DHT22;54673;52.262;6.830;2024-02-04T10:39:21;8.50;99.90
67870;DHT22;54673;52.262;6.830;2024-02-04T10:41:52;8.50;99.90
67870;DHT22;54673;52.262;6.830;2024-02-04T10:44:21;8.50;99.90
67870;DHT22;54673;52.262;6.830;2024-02-04T10:46:47;8.50;99.90
67870;DHT22;54673;52.262;6.830;2024-02-04T10:49:15;9.20;99.90
67870;DHT22;54673;52.262;6.830;2024-02-04T10:51:45;8.50;99.90
67870;DHT22;54673;52.262;6.830;2024-02-04T10:54:15;8.50;99.90
67870;DHT22;54673;52.262;6.830;2024-02-04T10:56:50;8.50;99.90
67870;DHT22;54673;52.262;6.830;2024-02-04T10:59:19;8.90;99.90
67870;DHT22;54673;52.262;6.830;2024-02-04T11:01:46;9.60;99.90
67870;DHT22;54673;52.262;6.830;2024-02-04T11:04:15;9.90;99.90
67870;DHT22;54673;52.262;6.830;2024-02-04T11:06:42;9.60;99.90
67870;DHT22;54673;52.262;6.830;2024-02-04T11:09:12;9.40;99.90
67870;DHT22;54673;52.262;6.830;2024-02-04T11:11:44;8.70;99.90
67870;DHT22;54673;52.262;6.830;2024-02-04T11:14:16;9.40;99.90
67870;DHT22;54673;52.262;6.830;2024-02-04T11:25:41;8.70;99.90
67870;DHT22;54673;52.262;6.830;2024-02-04T11:28:10;8.70;99.90
67870;DHT22;54673;52.262;6.830;2024-02-04T11:30:36;8.70;99.90
67870;DHT22;54673;52.262;6.830;2024-02-04T11:33:06;8.70;99.90
67870;DHT22;54673;52.262;6.830;2024-02-04T11:35:32;8.80;99.90
67870;DHT22;54673;52.262;6.830;2024-02-04T11:37:58;9.10;99.90
67870;DHT22;54673;52.262;6.830;2024-02-04T11:40:36;8.80;99.90
67870;DHT22;54673;52.262;6.830;2024-02-04T11:45:31;8.80;99.90
67870;DHT22;54673;52.262;6.830;2024-02-04T11:48:03;8.90;99.90
67870;DHT22;54673;52.262;6.830;2024-02-04T11:50:29;8.90;99.90
67870;DHT22;54673;52.262;6.830;2024-02-04T11:53:25;8.90;99.90
67870;DHT22;54673;52.262;6.830;2024-02-04T11:55:55;8.90;99.90
67870;DHT22;54673;52.262;6.830;2024-02-04T11:58:21;8.90;99.90
67870;DHT22;54673;52.262;6.830;2024-02-04T12:00:46;8.90;99.90
67870;DHT22;54673;52.262;6.830;2024-02-04T12:03:14;8.90;99.90
67870;DHT22;54673;52.262;6.830;2024-02-04T12:05:40;8.90;99.90
67870;DHT22;54673;52.262;6.830;2024-02-04T12:08:07;8.90;99.90
67870;DHT22;54673;52.262;6.830;2024-02-04T12:10:37;9.00;99.90
67870;DHT22;54673;52.262;6.830;2024-02-04T12:13:04;8.90;99.90
67870;DHT22;54673;52.262;6.830;2024-02-04T12:15:31;8.90;99.90
67870;DHT22;54673;52.262;6.830;2024-02-04T12:18:11;9.40;99.90
67870;DHT22;54673;52.262;6.830;2024-02-04T12:20:38;9.00;99.90
67870;DHT22;54673;52.262;6.830;2024-02-04T12:23:04;9.00;99.90
67870;DHT22;54673;52.262;6.830;2024-02-04T12:25:30;9.00;99.90
67870;DHT22;54673;52.262;6.830;2024-02-04T12:27:58;9.00;99.90
67870;DHT22;54673;52.262;6.830;2024-02-04T12:30:24;9.00;99.90
67870;DHT22;54673;52.262;6.830;2024-02-04T12:33:03;10.10;99.90
67870;DHT22;54673;52.262;6.830;2024-02-04T12:35:29;9.10;99.90
67870;DHT22;54673;52.262;6.830;2024-02-04T12:37:57;9.10;99.90
67870;DHT22;54673;52.262;6.830;2024-02-04T12:40:27;9.90;99.90
67870;DHT22;54673;52.262;6.830;2024-02-04T12:42:58;9.10;99.90
67870;DHT22;54673;52.262;6.830;2024-02-04T12:45:24;9.10;99.90
67870;DHT22;54673;52.262;6.830;2024-02-04T12:47:51;9.10;99.90
67870;DHT22;54673;52.262;6.830;2024-02-04T12:50:17;9.10;99.90
67870;DHT22;54673;52.262;6.830;2024-02-04T12:52:45;9.20;99.90
67870;DHT22;54673;52.262;6.830;2024-02-04T12:55:25;9.60;99.90
67870;DHT22;54673;52.262;6.830;2024-02-04T12:58:07;9.10;99.90
67870;DHT22;54673;52.262;6.830;2024-02-04T13:00:36;9.20;99.90
67870;DHT22;54673;52.262;6.830;2024-02-04T13:03:04;9.10;99.90
67870;DHT22;54673;52.262;6.830;2024-02-04T13:05:30;9.20;99.90
67870;DHT22;54673;52.262;6.830;2024-02-04T13:07:58;9.20;99.90
67870;DHT22;54673;52.262;6.830;2024-02-04T13:10:28;9.20;99.90
67870;DHT22;54673;52.262;6.830;2024-02-04T13:13:04;9.20;99.90
67870;DHT22;54673;52.262;6.830;2024-02-04T13:15:38;9.30;99.90
67870;DHT22;54673;52.262;6.830;2024-02-04T13:18:04;9.30;99.90
67870;DHT22;54673;52.262;6.830;2024-02-04T13:20:30;9.30;99.90
67870;DHT22;54673;52.262;6.830;2024-02-04T13:22:56;9.30;99.90
67870;DHT22;54673;52.262;6.830;2024-02-04T13:25:23;9.30;99.90
67870;DHT22;54673;52.262;6.830;2024-02-04T13:27:49;9.30;99.90
67870;DHT22;54673;52.262;6.830;2024-02-04T13:30:18;9.30;99.90
67870;DHT22;54673;52.262;6.830;2024-02-04T13:32:45;9.30;99.90
67870;DHT22;54673;52.262;6.830;2024-02-04T13:35:11;9.40;99.90
67870;DHT22;54673;52.262;6.830;2024-02-04T13:37:39;9.80;99.90
67870;DHT22;54673;52.262;6.830;2024-02-04T13:40:05;9.30;99.90
67870;DHT22;54673;52.262;6.830;2024-02-04T13:42:32;9.40;99.90
67870;DHT22;54673;52.262;6.830;2024-02-04T13:44:59;9.40;99.90
67870;DHT22;54673;52.262;6.830;2024-02-04T13:47:25;10.00;99.90
67870;DHT22;54673;52.262;6.830;2024-02-04T13:49:51;9.60;99.90
67870;DHT22;54673;52.262;6.830;2024-02-04T13:52:17;9.40;99.90
67870;DHT22;54673;52.262;6.830;2024-02-04T13:54:42;9.50;99.90
67870;DHT22;54673;52.262;6.830;2024-02-04T13:57:09;9.40;99.90
67870;DHT22;54673;52.262;6.830;2024-02-04T13:59:34;9.40;99.90
67870;DHT22;54673;52.262;6.830;2024-02-04T14:02:00;9.40;99.90
67870;DHT22;54673;52.262;6.830;2024-02-04T14:04:26;9.70;99.90
67870;DHT22;54673;52.262;6.830;2024-02-04T14:06:52;9.50;99.90
67870;DHT22;54673;52.262;6.830;2024-02-04T14:09:17;10.40;99.90
67870;DHT22;54673;52.262;6.830;2024-02-04T14:11:43;9.40;99.90
67870;DHT22;54673;52.262;6.830;2024-02-04T14:14:09;10.30;99.90
67870;DHT22;54673;52.262;6.830;2024-02-04T14:16:34;9.50;99.90
67870;DHT22;54673;52.262;6.830;2024-02-04T14:19:00;10.20;99.90
67870;DHT22;54673;52.262;6.830;2024-02-04T14:21:26;9.50;99.90
67870;DHT22;54673;52.262;6.830;2024-02-04T14:23:51;9.50;99.90
67870;DHT22;54673;52.262;6.830;2024-02-04T14:26:18;9.50;99.90
67870;DHT22;54673;52.262;6.830;2024-02-04T14:28:43;9.50;99.90
67870;DHT22;54673;52.262;6.830;2024-02-04T14:31:09;9.50;99.90
67870;DHT22;54673;52.262;6.830;2024-02-04T14:33:34;9.50;99.90
67870;DHT22;54673;52.262;6.830;2024-02-04T14:36:00;9.50;99.90
67870;DHT22;54673;52.262;6.830;2024-02-04T14:38:26;9.90;99.90
67870;DHT22;54673;52.262;6.830;2024-02-04T14:40:52;9.50;99.90
67870;DHT22;54673;52.262;6.830;2024-02-04T14:43:17;9.50;99.90
67870;DHT22;54673;52.262;6.830;2024-02-04T14:45:43;9.50;99.90
67870;DHT22;54673;52.262;6.830;2024-02-04T14:48:09;9.50;99.90
67870;DHT22;54673;52.262;6.830;2024-02-04T14:50:35;9.50;99.90
67870;DHT22;54673;52.262;6.830;2024-02-04T14:53:00;9.50;99.90
67870;DHT22;54673;52.262;6.830;2024-02-04T14:55:26;9.50;99.90
67870;DHT22;54673;52.262;6.830;2024-02-04T14:57:52;9.50;99.90
67870;DHT22;54673;52.262;6.830;2024-02-04T15:00:18;9.50;99.90
67870;DHT22;54673;52.262;6.830;2024-02-04T15:02:46;9.50;99.90
67870;DHT22;54673;52.262;6.830;2024-02-04T15:05:11;9.40;99.90
67870;DHT22;54673;52.262;6.830;2024-02-04T15:07:37;9.40;99.90
67870;DHT22;54673;52.262;6.830;2024-02-04T15:10:03;9.50;99.90
67870;DHT22;54673;52.262;6.830;2024-02-04T15:12:28;9.40;99.90
67870;DHT22;54673;52.262;6.830;2024-02-04T15:14:54;9.40;99.90
67870;DHT22;54673;52.262;6.830;2024-02-04T15:17:20;9.40;99.90
67870;DHT22;54673;52.262;6.830;2024-02-04T15:19:46;9.40;99.90
67870;DHT22;54673;52.262;6.830;2024-02-04T15:22:12;9.40;99.90
67870;DHT22;54673;52.262;6.830;2024-02-04T15:24:38;9.40;99.90
67870;DHT22;54673;52.262;6.830;2024-02-04T15:27:05;9.40;99.90
67870;DHT22;54673;52.262;6.830;2024-02-04T15:29:35;9.40;99.90
67870;DHT22;54673;52.262;6.830;2024-02-04T15:32:02;9.40;99.90
67870;DHT22;54673;52.262;6.830;2024-02-04T15:34:28;9.40;99.90
67870;DHT22;54673;52.262;6.830;2024-02-04T15:36:58;9.40;99.90
67870;DHT22;54673;52.262;6.830;2024-02-04T15:39:24;9.40;99.90
67870;DHT22;54673;52.262;6.830;2024-02-04T15:41:50;9.40;99.90
67870;DHT22;54673;52.262;6.830;2024-02-04T15:44:16;9.40;99.90
67870;DHT22;54673;52.262;6.830;2024-02-04T15:46:42;9.40;99.90
67870;DHT22;54673;52.262;6.830;2024-02-04T15:49:10;9.40;99.90
67870;DHT22;54673;52.262;6.830;2024-02-04T15:51:38;9.40;99.90
67870;DHT22;54673;52.262;6.830;2024-02-04T15:54:04;9.40;99.90
67870;DHT22;54673;52.262;6.830;2024-02-04T15:56:34;9.40;99.90